Terminal Aerodrome Forecast
Issued by NWS

Home | Current Version | Previous Version | Text Only | Print | Product List | Glossary On
Versions: 1 2 3 4 5 6 7 8 9 10 11 12
238
FTUS45 KRIW 271130
TAFJAC
TAF
KJAC 271130Z 2712/2812 01006KT P6SM FEW120
     FM271300 VRB05KT P6SM FEW120
     FM271900 22011KT P6SM FEW110
     FM280300 VRB06KT P6SM VCSH SCT100
     FM280800 01007KT P6SM FEW110
      AMD LTD TO CLD VIS AND WIND=

USA.gov is the U.S. government's official web portal to all federal, state and local government web resources and services.